createdAt,value
2024-01-24T00:00:25.760Z,18.13
2024-01-24T00:01:28.441Z,17.65
2024-01-24T00:02:31.074Z,14.77
2024-01-24T00:03:33.805Z,16.10
2024-01-24T00:04:36.437Z,16.10
2024-01-24T00:05:39.214Z,16.95
2024-01-24T00:06:41.892Z,17.27
2024-01-24T00:07:44.716Z,19.00
2024-01-24T00:08:49.514Z,19.70
2024-01-24T00:09:52.081Z,16.60
2024-01-24T00:10:54.723Z,17.83
2024-01-24T00:11:57.537Z,17.92
2024-01-24T00:13:00.288Z,16.85
2024-01-24T00:14:03.078Z,18.88
2024-01-24T00:15:06.448Z,19.40
2024-01-24T00:16:09.778Z,16.70
2024-01-24T00:17:12.316Z,17.58
2024-01-24T00:18:15.176Z,17.00
2024-01-24T00:19:18.146Z,17.23
2024-01-24T00:20:20.758Z,19.63
2024-01-24T00:21:23.419Z,17.02
2024-01-24T00:22:26.145Z,16.55
2024-01-24T00:23:28.889Z,18.17
2024-01-24T00:24:31.459Z,18.73
2024-01-24T00:25:34.041Z,20.33
2024-01-24T00:26:39.468Z,20.15
2024-01-24T00:27:42.433Z,18.70
2024-01-24T00:28:45.068Z,14.18
2024-01-24T00:29:47.605Z,16.38
2024-01-24T00:30:50.371Z,15.70
2024-01-24T00:31:56.865Z,15.20
2024-01-24T00:33:01.170Z,17.75
2024-01-24T00:34:03.829Z,16.80
2024-01-24T00:35:07.059Z,16.40
2024-01-24T00:36:09.674Z,16.23
2024-01-24T00:37:12.316Z,14.43
2024-01-24T00:38:14.894Z,16.17
2024-01-24T00:39:18.290Z,13.38
2024-01-24T00:40:20.931Z,16.17
2024-01-24T00:41:23.608Z,16.20
2024-01-24T00:42:26.240Z,14.93
2024-01-24T00:43:28.882Z,14.70
2024-01-24T00:44:31.425Z,16.73
2024-01-24T00:45:34.018Z,14.18
2024-01-24T00:46:36.688Z,19.08
2024-01-24T00:47:40.591Z,15.18
2024-01-24T00:48:43.330Z,16.55
2024-01-24T00:49:45.954Z,17.75
2024-01-24T00:50:48.528Z,21.95
2024-01-24T00:51:51.117Z,16.23
2024-01-24T00:52:56.707Z,17.42
2024-01-24T00:53:59.990Z,15.35
2024-01-24T00:55:02.904Z,18.75
2024-01-24T00:56:06.190Z,14.45
2024-01-24T00:57:09.267Z,16.60
2024-01-24T00:58:11.881Z,16.02
2024-01-24T00:59:14.673Z,20.75
2024-01-24T01:00:17.692Z,20.20
2024-01-24T01:01:21.277Z,20.00
2024-01-24T01:02:23.973Z,19.27
2024-01-24T01:03:26.680Z,23.25
2024-01-24T01:04:29.381Z,18.77
2024-01-24T01:05:32.065Z,24.98
2024-01-24T01:06:34.705Z,28.52
2024-01-24T01:07:37.237Z,25.50
2024-01-24T01:08:39.898Z,23.35
2024-01-24T01:09:42.427Z,17.90
2024-01-24T01:10:45.020Z,18.92
2024-01-24T01:11:47.597Z,21.48
2024-01-24T01:12:50.160Z,21.98
2024-01-24T01:13:52.858Z,23.60
2024-01-24T01:14:55.538Z,22.15
2024-01-24T01:15:58.098Z,17.42
2024-01-24T01:17:00.682Z,19.90
2024-01-24T01:18:03.579Z,18.52
2024-01-24T01:19:06.285Z,21.98
2024-01-24T01:20:10.902Z,20.98
2024-01-24T01:21:13.573Z,23.08
2024-01-24T01:22:16.756Z,26.40
2024-01-24T01:23:19.841Z,26.38
2024-01-24T01:24:22.398Z,28.67
2024-01-24T01:25:24.957Z,26.30
2024-01-24T01:26:27.567Z,19.65
2024-01-24T01:27:30.177Z,23.73
2024-01-24T01:28:32.765Z,22.88
2024-01-24T01:29:35.588Z,24.40
2024-01-24T01:30:38.202Z,24.83
2024-01-24T01:31:40.750Z,28.13
2024-01-24T01:32:44.509Z,23.40
2024-01-24T01:33:47.216Z,28.70
2024-01-24T01:34:49.895Z,26.40
2024-01-24T01:35:57.788Z,30.23
2024-01-24T01:37:03.805Z,25.45
2024-01-24T01:38:06.419Z,22.95
2024-01-24T01:39:10.048Z,28.27
2024-01-24T01:40:12.968Z,23.58
2024-01-24T01:41:15.537Z,24.40
2024-01-24T01:42:18.396Z,30.48
2024-01-24T01:43:21.084Z,28.00
2024-01-24T01:44:23.811Z,25.27
2024-01-24T01:45:26.406Z,24.13
2024-01-24T01:46:29.409Z,24.65
2024-01-24T01:47:32.408Z,19.42
2024-01-24T01:48:35.881Z,19.52
2024-01-24T01:49:39.615Z,21.30
2024-01-24T01:50:42.399Z,17.52
2024-01-24T01:51:46.783Z,18.65
2024-01-24T01:52:49.774Z,18.30
2024-01-24T01:53:52.753Z,16.52
2024-01-24T01:54:55.745Z,16.27
2024-01-24T01:55:58.727Z,19.25
2024-01-24T01:57:02.324Z,19.30
2024-01-24T01:58:05.709Z,17.17
2024-01-24T01:59:09.430Z,19.95
2024-01-24T02:00:20.754Z,19.52
2024-01-24T02:01:24.244Z,18.65
2024-01-24T02:02:27.416Z,17.70
2024-01-24T02:03:30.221Z,18.55
2024-01-24T02:04:33.043Z,18.83
2024-01-24T02:05:39.044Z,16.65
2024-01-24T02:06:42.038Z,19.80
2024-01-24T02:07:45.933Z,19.55
2024-01-24T02:08:48.842Z,19.35
2024-01-24T02:09:51.527Z,20.77
2024-01-24T02:10:55.131Z,21.02
2024-01-24T02:11:57.839Z,18.42
2024-01-24T02:13:00.540Z,21.35
2024-01-24T02:14:03.668Z,21.67
2024-01-24T02:15:07.487Z,20.10
2024-01-24T02:16:11.523Z,19.20
2024-01-24T02:17:14.119Z,20.42
2024-01-24T02:18:16.844Z,16.63
2024-01-24T02:19:19.521Z,17.65
2024-01-24T02:20:23.674Z,19.27
2024-01-24T02:21:26.303Z,19.73
2024-01-24T02:22:28.905Z,16.02
2024-01-24T02:23:31.686Z,16.50
2024-01-24T02:24:34.416Z,17.60
2024-01-24T02:25:37.050Z,16.35
2024-01-24T02:26:40.350Z,17.10
2024-01-24T02:27:45.159Z,20.70
2024-01-24T02:28:49.421Z,25.52
2024-01-24T02:29:52.009Z,20.70
2024-01-24T02:30:54.676Z,16.90
2024-01-24T02:31:57.387Z,20.20
2024-01-24T02:33:00.338Z,19.17
2024-01-24T02:34:03.103Z,17.08
2024-01-24T02:35:06.490Z,21.63
2024-01-24T02:36:11.067Z,21.30
2024-01-24T02:37:13.761Z,17.70
2024-01-24T02:38:16.336Z,17.65
2024-01-24T02:39:19.158Z,19.20
2024-01-24T02:40:22.566Z,21.63
2024-01-24T02:41:25.145Z,21.20
2024-01-24T02:42:27.732Z,24.00
2024-01-24T02:43:30.305Z,21.67
2024-01-24T02:44:32.820Z,24.98
2024-01-24T02:45:35.559Z,30.08
2024-01-24T02:46:38.545Z,23.85
2024-01-24T02:47:41.190Z,22.30
2024-01-24T02:48:43.821Z,18.77
2024-01-24T02:49:46.546Z,19.52
2024-01-24T02:50:49.133Z,20.52
2024-01-24T02:51:51.927Z,19.02
2024-01-24T02:52:54.674Z,18.55
2024-01-24T02:53:57.285Z,18.90
2024-01-24T02:54:59.990Z,17.83
2024-01-24T02:56:03.505Z,20.48
2024-01-24T02:57:06.210Z,21.15
2024-01-24T02:58:08.957Z,17.30
2024-01-24T02:59:11.866Z,18.45
2024-01-24T03:00:15.164Z,19.92
2024-01-24T03:01:18.125Z,16.60
2024-01-24T03:02:20.766Z,19.17
2024-01-24T03:03:23.364Z,17.58
2024-01-24T03:04:26.187Z,18.60
2024-01-24T03:05:29.180Z,19.20
2024-01-24T03:06:31.749Z,18.73
2024-01-24T03:07:35.718Z,18.77
2024-01-24T03:08:57.874Z,19.70
2024-01-24T03:10:00.541Z,16.35
2024-01-24T03:11:03.076Z,18.13
2024-01-24T03:12:06.117Z,16.55
2024-01-24T03:13:09.133Z,16.38
2024-01-24T03:14:11.777Z,17.20
2024-01-24T03:15:14.454Z,20.67
2024-01-24T03:16:18.506Z,19.10
2024-01-24T03:17:21.146Z,20.27
2024-01-24T03:18:25.064Z,18.83
2024-01-24T03:19:27.908Z,20.02
2024-01-24T03:20:30.666Z,18.27
2024-01-24T03:21:33.953Z,18.85
2024-01-24T03:22:36.818Z,19.90
2024-01-24T03:23:39.633Z,19.50
2024-01-24T03:24:42.275Z,15.90
2024-01-24T03:25:44.803Z,16.73
2024-01-24T03:26:47.476Z,14.88
2024-01-24T03:27:50.161Z,15.25
2024-01-24T03:28:52.782Z,17.25
2024-01-24T03:29:56.405Z,15.73
2024-01-24T03:30:59.134Z,17.65
2024-01-24T03:32:01.676Z,17.58
2024-01-24T03:33:05.922Z,17.65
2024-01-24T03:34:08.744Z,16.30
2024-01-24T03:35:11.596Z,15.48
2024-01-24T03:36:14.362Z,15.60
2024-01-24T03:37:16.915Z,15.57
2024-01-24T03:38:21.110Z,13.52
2024-01-24T03:39:24.103Z,13.48
2024-01-24T03:40:26.661Z,14.40
2024-01-24T03:41:29.264Z,12.43
2024-01-24T03:42:33.144Z,13.13
2024-01-24T03:43:39.978Z,14.82
2024-01-24T03:44:42.701Z,17.92
2024-01-24T03:45:45.349Z,15.27
2024-01-24T03:46:47.950Z,14.98
2024-01-24T03:47:51.135Z,16.17
2024-01-24T03:48:54.051Z,15.93
2024-01-24T03:49:56.673Z,18.42
2024-01-24T03:50:59.808Z,16.85
2024-01-24T03:52:02.954Z,18.30
2024-01-24T03:53:06.230Z,21.33
2024-01-24T03:54:08.926Z,30.35
2024-01-24T03:55:11.577Z,25.40
2024-01-24T03:56:14.196Z,25.00
2024-01-24T03:57:16.980Z,23.33
2024-01-24T03:58:20.071Z,16.73
2024-01-24T03:59:22.739Z,22.23
2024-01-24T04:00:25.814Z,15.27
2024-01-24T04:01:28.505Z,16.52
2024-01-24T04:02:31.155Z,17.48
2024-01-24T04:03:33.960Z,15.43
2024-01-24T04:04:36.696Z,17.90
2024-01-24T04:05:39.298Z,19.65
2024-01-24T04:06:42.153Z,15.88
2024-01-24T04:07:44.902Z,17.83
2024-01-24T04:08:47.540Z,22.45
2024-01-24T04:09:50.209Z,20.88
2024-01-24T04:10:52.821Z,17.60
2024-01-24T04:11:55.492Z,24.60
2024-01-24T04:12:58.137Z,45.88
2024-01-24T04:14:02.718Z,52.03
2024-01-24T04:15:09.571Z,39.42
2024-01-24T04:16:12.279Z,30.00
2024-01-24T04:17:14.995Z,45.47
2024-01-24T04:18:17.842Z,47.17
2024-01-24T04:19:20.674Z,48.25
2024-01-24T04:20:23.549Z,28.15
2024-01-24T04:21:26.118Z,17.95
2024-01-24T04:22:28.673Z,16.30
2024-01-24T04:23:31.246Z,14.65
2024-01-24T04:24:33.794Z,30.20
2024-01-24T04:25:36.555Z,78.28
2024-01-24T04:26:40.810Z,92.43
2024-01-24T04:27:43.653Z,72.47
2024-01-24T04:28:46.235Z,60.35
2024-01-24T04:29:48.896Z,49.83
2024-01-24T04:30:51.816Z,68.07
2024-01-24T04:31:54.412Z,53.17
2024-01-24T04:32:57.082Z,47.42
2024-01-24T04:33:59.898Z,44.83
2024-01-24T04:35:02.560Z,32.35
2024-01-24T04:36:05.601Z,26.80
2024-01-24T04:37:08.746Z,20.27
2024-01-24T04:38:11.378Z,16.85
2024-01-24T04:39:14.029Z,19.40
2024-01-24T04:40:16.831Z,14.73
2024-01-24T04:41:19.617Z,14.50
2024-01-24T04:42:22.308Z,16.02
2024-01-24T04:43:24.958Z,13.98
2024-01-24T04:44:27.554Z,11.40
2024-01-24T04:45:30.150Z,12.48
2024-01-24T04:46:32.753Z,14.50
2024-01-24T04:47:35.381Z,15.52
2024-01-24T04:48:39.257Z,17.20
2024-01-24T04:49:45.230Z,20.80
2024-01-24T04:50:49.196Z,25.65
2024-01-24T04:51:52.202Z,23.23
2024-01-24T04:52:54.874Z,25.50
2024-01-24T04:53:57.672Z,23.40
2024-01-24T04:55:00.375Z,31.27
2024-01-24T04:56:03.804Z,49.45
2024-01-24T04:57:06.396Z,45.70
2024-01-24T04:58:09.033Z,43.47
2024-01-24T04:59:15.566Z,34.60
2024-01-24T05:00:18.845Z,38.63
2024-01-24T05:01:21.645Z,36.10
2024-01-24T05:02:24.536Z,134.77
2024-01-24T05:03:27.576Z,222.98
2024-01-24T05:04:30.360Z,159.40
2024-01-24T05:05:33.044Z,168.13
2024-01-24T05:06:36.512Z,166.90
2024-01-24T05:07:40.093Z,88.07
2024-01-24T05:08:42.673Z,53.35
2024-01-24T05:09:45.331Z,43.38
2024-01-24T05:10:48.112Z,68.97
2024-01-24T05:11:50.711Z,78.55
2024-01-24T05:12:53.523Z,55.97
2024-01-24T05:14:01.215Z,52.08
2024-01-24T05:15:04.186Z,40.17
2024-01-24T05:16:06.973Z,30.00
2024-01-24T05:17:09.720Z,24.05
2024-01-24T05:18:12.414Z,18.08
2024-01-24T05:19:15.236Z,27.08
2024-01-24T05:20:18.644Z,18.67
2024-01-24T05:21:21.449Z,17.67
2024-01-24T05:22:24.082Z,20.20
2024-01-24T05:23:26.654Z,15.98
2024-01-24T05:24:29.279Z,16.13
2024-01-24T05:25:32.113Z,19.50
2024-01-24T05:26:34.682Z,16.25
2024-01-24T05:27:37.544Z,18.55
2024-01-24T05:28:41.825Z,17.67
2024-01-24T05:29:46.762Z,16.67
2024-01-24T05:30:49.437Z,19.60
2024-01-24T05:31:52.113Z,12.68
2024-01-24T05:32:58.878Z,15.25
2024-01-24T05:34:03.652Z,17.05
2024-01-24T05:35:07.285Z,15.75
2024-01-24T05:36:11.064Z,8.02
2024-01-24T05:37:13.997Z,12.85
2024-01-24T05:38:16.619Z,12.18
2024-01-24T05:39:19.310Z,15.07
2024-01-24T05:40:22.904Z,10.00
2024-01-24T05:41:26.240Z,9.05
2024-01-24T05:42:28.847Z,7.60
2024-01-24T05:43:31.514Z,9.77
2024-01-24T05:44:34.073Z,11.57
2024-01-24T05:45:36.691Z,11.63
2024-01-24T05:46:39.434Z,10.98
2024-01-24T05:47:43.834Z,9.25
2024-01-24T05:48:47.271Z,12.35
2024-01-24T05:49:50.008Z,10.88
2024-01-24T05:50:52.613Z,11.75
2024-01-24T05:51:55.249Z,14.20
2024-01-24T05:52:59.218Z,11.77
2024-01-24T05:54:01.795Z,13.60
2024-01-24T05:55:05.667Z,23.58
2024-01-24T05:56:08.474Z,20.70
2024-01-24T05:57:11.089Z,15.85
2024-01-24T05:58:13.738Z,13.60
2024-01-24T05:59:16.317Z,18.88
2024-01-24T06:00:18.978Z,20.35
2024-01-24T06:01:22.770Z,19.27
2024-01-24T06:02:25.335Z,21.70
2024-01-24T06:03:27.916Z,23.88
2024-01-24T06:04:31.217Z,20.63
2024-01-24T06:05:34.227Z,27.65
2024-01-24T06:06:37.121Z,48.55
2024-01-24T06:07:40.300Z,36.42
2024-01-24T06:08:44.851Z,33.45
2024-01-24T06:09:47.507Z,29.50
2024-01-24T06:10:50.238Z,23.77
2024-01-24T06:11:52.774Z,22.83
2024-01-24T06:12:55.432Z,20.10
2024-01-24T06:13:57.974Z,26.52
2024-01-24T06:15:00.718Z,24.55
2024-01-24T06:16:03.755Z,19.20
2024-01-24T06:17:06.446Z,17.08
2024-01-24T06:18:09.191Z,16.83
2024-01-24T06:19:11.892Z,21.42
2024-01-24T06:20:15.087Z,17.73
2024-01-24T06:21:17.798Z,16.92
2024-01-24T06:22:20.407Z,15.63
2024-01-24T06:23:23.018Z,20.25
2024-01-24T06:24:25.695Z,14.23
2024-01-24T06:25:28.341Z,13.77
2024-01-24T06:26:31.794Z,13.43
2024-01-24T06:27:36.310Z,12.63
2024-01-24T06:28:39.148Z,13.95
2024-01-24T06:30:16.506Z,17.70
2024-01-24T06:31:04.530Z,16.30
2024-01-24T06:32:08.044Z,14.45
2024-01-24T06:33:10.711Z,16.27
2024-01-24T06:34:13.760Z,16.75
2024-01-24T06:35:16.435Z,14.65
2024-01-24T06:36:19.220Z,25.48
2024-01-24T06:37:22.338Z,26.27
2024-01-24T06:38:25.069Z,20.55
2024-01-24T06:39:28.268Z,41.28
2024-01-24T06:40:31.170Z,16.17
2024-01-24T06:41:34.592Z,19.00
2024-01-24T06:42:39.005Z,16.85
2024-01-24T06:43:43.622Z,18.48
2024-01-24T06:44:46.487Z,18.63
2024-01-24T06:45:49.176Z,13.82
2024-01-24T06:46:52.415Z,12.30
2024-01-24T06:47:55.022Z,14.65
2024-01-24T06:48:57.684Z,12.57
2024-01-24T06:50:00.366Z,14.20
2024-01-24T06:51:02.976Z,13.63
2024-01-24T06:52:05.920Z,14.88
2024-01-24T06:53:11.574Z,13.57
2024-01-24T06:54:14.440Z,13.00
2024-01-24T06:55:18.755Z,12.95
2024-01-24T06:56:22.661Z,11.77
2024-01-24T06:57:25.439Z,9.82
2024-01-24T06:58:28.016Z,12.20
2024-01-24T06:59:32.760Z,13.52
2024-01-24T07:00:35.502Z,10.73
2024-01-24T07:01:38.210Z,15.68
2024-01-24T07:02:40.823Z,16.27
2024-01-24T07:03:43.510Z,20.05
2024-01-24T07:04:46.333Z,28.42
2024-01-24T07:05:49.111Z,25.05
2024-01-24T07:06:51.979Z,35.80
2024-01-24T07:07:54.603Z,44.97
2024-01-24T07:08:57.620Z,49.53
2024-01-24T07:10:00.409Z,57.38
2024-01-24T07:11:03.526Z,52.20
2024-01-24T07:12:06.811Z,48.42
2024-01-24T07:13:09.749Z,17.40
2024-01-24T07:14:16.031Z,9.32
2024-01-24T07:15:19.157Z,12.90
2024-01-24T07:16:21.783Z,10.45
2024-01-24T07:17:24.859Z,11.60
2024-01-24T07:18:28.272Z,10.50
2024-01-24T07:19:31.000Z,14.75
2024-01-24T07:20:33.570Z,11.23
2024-01-24T07:21:36.816Z,10.70
2024-01-24T07:22:40.173Z,13.65
2024-01-24T07:23:42.782Z,8.82
2024-01-24T07:24:46.045Z,9.25
2024-01-24T07:25:48.905Z,11.40
2024-01-24T07:26:51.542Z,11.98
2024-01-24T07:27:54.721Z,12.13
2024-01-24T07:28:57.413Z,10.50
2024-01-24T07:30:00.399Z,9.32
2024-01-24T07:31:03.804Z,9.93
2024-01-24T07:32:07.296Z,6.90
2024-01-24T07:33:09.906Z,10.57
2024-01-24T07:34:13.123Z,8.98
2024-01-24T07:35:16.770Z,10.73
2024-01-24T07:36:22.500Z,13.63
2024-01-24T07:38:27.806Z,12.55
2024-01-24T07:39:30.855Z,12.88
2024-01-24T07:40:33.537Z,15.10
2024-01-24T07:41:36.429Z,25.17
2024-01-24T07:42:39.193Z,23.50
2024-01-24T07:43:42.806Z,21.33
2024-01-24T07:44:45.331Z,35.50
2024-01-24T07:45:48.006Z,51.67
2024-01-24T07:46:50.991Z,62.20
2024-01-24T07:47:54.880Z,71.38
2024-01-24T07:48:58.001Z,87.13
2024-01-24T07:50:01.220Z,71.72
2024-01-24T07:51:05.807Z,54.97
2024-01-24T07:52:08.717Z,46.08
2024-01-24T07:53:12.234Z,31.10
2024-01-24T07:54:14.963Z,25.38
2024-01-24T07:55:24.813Z,23.88
2024-01-24T07:56:31.719Z,29.40
2024-01-24T07:57:34.570Z,29.33
2024-01-24T07:58:40.197Z,41.15
2024-01-24T07:59:42.927Z,35.08
2024-01-24T08:00:46.790Z,35.30
2024-01-24T08:01:50.080Z,30.45
2024-01-24T08:02:53.429Z,26.55
2024-01-24T08:03:56.688Z,28.25
2024-01-24T08:05:00.426Z,25.00
2024-01-24T08:06:03.730Z,25.38
2024-01-24T08:07:07.345Z,32.20
2024-01-24T08:08:10.025Z,21.50
2024-01-24T08:09:13.704Z,16.42
2024-01-24T08:10:16.956Z,19.63
2024-01-24T08:11:22.626Z,24.48
2024-01-24T08:13:28.068Z,15.73
2024-01-24T08:14:31.482Z,13.45
2024-01-24T08:15:34.711Z,17.90
2024-01-24T08:16:37.562Z,20.33
2024-01-24T08:17:40.257Z,26.98
2024-01-24T08:18:43.052Z,23.45
2024-01-24T08:19:46.358Z,26.25
2024-01-24T08:20:49.169Z,34.58
2024-01-24T08:21:51.849Z,57.50
2024-01-24T08:22:54.511Z,50.50
2024-01-24T08:23:57.160Z,53.10
2024-01-24T08:24:59.871Z,55.17
2024-01-24T08:26:02.699Z,62.22
2024-01-24T08:27:05.646Z,63.05
2024-01-24T08:28:09.429Z,62.63
2024-01-24T08:29:19.035Z,60.88
2024-01-24T08:30:28.375Z,33.88
2024-01-24T08:31:31.016Z,20.63
2024-01-24T08:32:33.859Z,15.52
2024-01-24T08:33:36.684Z,18.38
2024-01-24T08:34:40.308Z,22.60
2024-01-24T08:35:42.965Z,19.77
2024-01-24T08:36:45.824Z,23.05
2024-01-24T08:37:48.588Z,20.75
2024-01-24T08:38:51.942Z,24.85
2024-01-24T08:39:54.736Z,45.35
2024-01-24T08:40:57.645Z,44.53
2024-01-24T08:42:00.196Z,42.65
2024-01-24T08:43:02.975Z,41.08
2024-01-24T08:44:06.066Z,50.88
2024-01-24T08:45:10.361Z,59.55
2024-01-24T08:46:13.062Z,51.15
2024-01-24T08:47:15.730Z,47.45
2024-01-24T08:48:22.901Z,46.92
2024-01-24T08:49:26.211Z,43.75
2024-01-24T08:50:29.019Z,29.02
2024-01-24T08:51:32.993Z,25.85
2024-01-24T08:52:36.606Z,22.30
2024-01-24T08:53:39.393Z,23.42
2024-01-24T08:54:44.754Z,29.70
2024-01-24T08:55:48.579Z,23.67
2024-01-24T08:56:51.532Z,34.97
2024-01-24T08:57:55.514Z,43.50
2024-01-24T08:58:58.352Z,43.20
2024-01-24T09:00:01.192Z,50.40
2024-01-24T09:01:04.598Z,37.40
2024-01-24T09:02:08.640Z,31.15
2024-01-24T09:03:12.355Z,35.08
2024-01-24T09:04:15.661Z,37.13
2024-01-24T09:05:22.136Z,34.30
2024-01-24T09:06:26.407Z,39.65
2024-01-24T09:07:29.103Z,36.78
2024-01-24T09:08:31.661Z,38.72
2024-01-24T09:09:36.611Z,39.95
2024-01-24T09:10:40.666Z,39.97
2024-01-24T09:11:50.413Z,39.75
2024-01-24T09:12:59.375Z,60.08
2024-01-24T09:14:01.968Z,72.55
2024-01-24T09:15:05.736Z,111.82
2024-01-24T09:16:09.259Z,140.02
2024-01-24T09:17:13.529Z,139.52
2024-01-24T09:18:19.720Z,140.25
2024-01-24T09:19:23.279Z,140.95
2024-01-24T09:20:26.209Z,142.02
2024-01-24T09:21:28.893Z,136.68
2024-01-24T09:22:31.693Z,139.63
2024-01-24T09:23:34.592Z,128.80
2024-01-24T09:24:38.414Z,115.78
2024-01-24T09:25:41.031Z,108.82
2024-01-24T09:26:43.819Z,109.22
2024-01-24T09:27:47.074Z,105.75
2024-01-24T09:28:49.638Z,117.13
2024-01-24T09:29:52.749Z,127.32
2024-01-24T09:30:55.502Z,131.10
2024-01-24T09:31:59.091Z,133.07
2024-01-24T09:33:01.926Z,131.85
2024-01-24T09:34:04.751Z,129.90
2024-01-24T09:35:08.202Z,130.38
2024-01-24T09:36:11.208Z,127.43
2024-01-24T09:37:14.006Z,131.35
2024-01-24T09:38:17.027Z,127.07
2024-01-24T09:39:19.886Z,129.00
2024-01-24T09:40:22.875Z,154.98
2024-01-24T09:41:26.610Z,169.23
2024-01-24T09:42:33.367Z,179.75
2024-01-24T09:43:40.363Z,178.32
2024-01-24T09:44:48.069Z,197.93
2024-01-24T09:45:51.894Z,212.23
2024-01-24T09:46:56.849Z,206.90
2024-01-24T09:48:00.004Z,218.15
2024-01-24T09:49:04.531Z,219.45
2024-01-24T09:50:09.973Z,195.30
2024-01-24T09:51:14.774Z,208.45
2024-01-24T09:52:25.282Z,213.95
2024-01-24T09:53:32.037Z,205.82
2024-01-24T09:54:36.349Z,326.85
2024-01-24T09:55:39.118Z,368.02
2024-01-24T09:56:42.555Z,290.63
2024-01-24T09:57:47.002Z,222.77
2024-01-24T09:58:49.637Z,229.13
2024-01-24T09:59:52.705Z,219.77
2024-01-24T10:00:58.788Z,226.70
2024-01-24T10:02:01.545Z,221.00
2024-01-24T10:03:05.292Z,220.70
2024-01-24T10:04:11.681Z,226.35
2024-01-24T10:05:18.634Z,215.88
2024-01-24T10:06:22.310Z,239.60
2024-01-24T10:07:25.030Z,240.25
2024-01-24T10:08:29.002Z,226.73
2024-01-24T10:09:31.748Z,221.85
2024-01-24T10:10:34.518Z,217.48
2024-01-24T10:11:37.115Z,222.27
2024-01-24T10:12:43.047Z,215.13
2024-01-24T10:13:45.758Z,217.27
2024-01-24T10:14:48.372Z,232.80
2024-01-24T10:15:51.144Z,217.68
2024-01-24T10:16:53.957Z,218.27
2024-01-24T10:17:57.334Z,215.13
2024-01-24T10:19:00.292Z,192.68
2024-01-24T10:20:07.471Z,176.57
2024-01-24T10:21:10.326Z,164.88
2024-01-24T10:22:13.092Z,152.45
2024-01-24T10:23:17.105Z,136.73
2024-01-24T10:24:20.829Z,137.05
2024-01-24T10:25:23.853Z,127.97
2024-01-24T10:26:28.290Z,151.10
2024-01-24T10:27:31.794Z,128.15
2024-01-24T10:28:36.306Z,132.32
2024-01-24T10:29:45.111Z,132.35
2024-01-24T10:30:50.285Z,118.50
2024-01-24T10:31:57.623Z,124.25
2024-01-24T10:33:00.369Z,103.22
2024-01-24T10:34:05.613Z,116.93
2024-01-24T10:35:09.837Z,149.38
2024-01-24T10:36:21.394Z,122.88
2024-01-24T10:37:29.464Z,116.95
2024-01-24T10:38:38.564Z,101.85
2024-01-24T10:39:41.599Z,84.70
2024-01-24T10:40:44.633Z,84.80
2024-01-24T10:41:52.654Z,116.13
2024-01-24T10:43:03.998Z,130.10
2024-01-24T10:44:11.097Z,126.22
2024-01-24T10:45:16.947Z,116.38
2024-01-24T10:46:20.240Z,130.13
2024-01-24T10:47:23.414Z,135.27
2024-01-24T10:48:27.211Z,134.43
2024-01-24T10:49:32.435Z,130.98
2024-01-24T10:50:37.706Z,122.65
2024-01-24T10:51:41.260Z,109.38
2024-01-24T10:52:44.676Z,101.07
2024-01-24T10:53:50.987Z,86.18
2024-01-24T10:54:56.927Z,88.47
2024-01-24T10:56:03.661Z,95.13
2024-01-24T10:57:08.437Z,106.72
2024-01-24T10:58:14.518Z,90.60
2024-01-24T10:59:20.685Z,95.57
2024-01-24T11:00:24.529Z,99.53
2024-01-24T11:01:27.354Z,93.32
2024-01-24T11:02:30.092Z,97.53
2024-01-24T11:03:34.002Z,98.43
2024-01-24T11:04:39.033Z,93.43
2024-01-24T11:05:57.081Z,103.78
2024-01-24T11:07:16.797Z,105.90
2024-01-24T11:08:40.362Z,102.53
2024-01-24T11:10:10.828Z,123.93
2024-01-24T11:11:18.634Z,118.93
2024-01-24T11:12:22.564Z,139.82
2024-01-24T11:13:25.672Z,158.75
2024-01-24T11:14:35.987Z,182.98
2024-01-24T11:15:39.851Z,212.13
2024-01-24T11:16:42.772Z,231.70
2024-01-24T11:17:48.009Z,222.68
2024-01-24T11:18:53.629Z,215.02
2024-01-24T11:19:56.824Z,205.98
2024-01-24T11:21:01.247Z,188.27
2024-01-24T11:22:17.122Z,152.82
2024-01-24T11:23:42.417Z,173.32
2024-01-24T11:24:45.402Z,179.02
2024-01-24T11:25:48.148Z,168.25
2024-01-24T11:26:50.892Z,130.77
2024-01-24T11:27:58.732Z,141.57
2024-01-24T11:29:15.405Z,125.85
2024-01-24T11:30:27.889Z,106.22
2024-01-24T11:31:42.153Z,125.95
2024-01-24T11:32:48.497Z,109.90
2024-01-24T11:34:11.418Z,139.75
2024-01-24T11:35:37.413Z,137.90
2024-01-24T11:36:53.972Z,128.10
2024-01-24T11:38:08.376Z,105.72
2024-01-24T11:39:33.197Z,95.97
2024-01-24T11:40:39.822Z,97.47
2024-01-24T11:41:42.616Z,87.30
2024-01-24T11:42:55.820Z,90.80
2024-01-24T11:43:58.555Z,90.00
2024-01-24T11:45:18.415Z,92.03
2024-01-24T11:46:24.339Z,102.15
2024-01-24T11:47:28.178Z,101.15
2024-01-24T11:48:33.479Z,87.97
2024-01-24T11:49:36.768Z,81.80
2024-01-24T11:50:39.569Z,109.75
2024-01-24T11:51:42.376Z,110.72
2024-01-24T11:52:46.753Z,129.25
2024-01-24T11:53:49.433Z,155.43
2024-01-24T11:54:56.232Z,138.23
2024-01-24T11:56:03.939Z,120.97
2024-01-24T11:57:06.532Z,106.05
2024-01-24T11:58:09.381Z,105.78
2024-01-24T11:59:12.222Z,101.80
2024-01-24T12:00:17.096Z,90.30
2024-01-24T12:01:19.971Z,89.20
2024-01-24T12:02:24.548Z,92.82
2024-01-24T12:03:27.605Z,100.30
2024-01-24T12:04:30.387Z,101.15
2024-01-24T12:05:33.942Z,91.55
2024-01-24T12:06:37.068Z,79.75
2024-01-24T12:07:39.937Z,65.05
2024-01-24T12:08:49.791Z,58.33
2024-01-24T12:09:54.494Z,60.38
2024-01-24T12:10:57.862Z,51.88
2024-01-24T12:12:00.501Z,38.80
2024-01-24T12:13:04.860Z,41.63
2024-01-24T12:14:07.757Z,51.40
2024-01-24T12:15:11.452Z,50.13
2024-01-24T12:16:15.514Z,63.08
2024-01-24T12:17:18.320Z,127.55
2024-01-24T12:18:21.493Z,172.40
2024-01-24T12:19:24.824Z,191.90
2024-01-24T12:20:28.207Z,186.90
2024-01-24T12:21:31.843Z,172.80
2024-01-24T12:22:34.943Z,172.40
2024-01-24T12:23:38.022Z,149.88
2024-01-24T12:24:43.984Z,156.52
2024-01-24T12:25:47.644Z,149.13
2024-01-24T12:26:52.324Z,158.20
2024-01-24T12:27:58.814Z,151.00
2024-01-24T12:29:01.817Z,147.90
2024-01-24T12:30:05.632Z,158.10
2024-01-24T12:31:11.005Z,147.32
2024-01-24T12:32:15.235Z,148.05
2024-01-24T12:33:18.934Z,142.15
2024-01-24T12:34:22.942Z,137.82
2024-01-24T12:35:26.194Z,131.70
2024-01-24T12:36:28.939Z,131.27
2024-01-24T12:37:32.106Z,140.15
2024-01-24T12:38:38.290Z,90.82
2024-01-24T12:39:44.542Z,106.38
2024-01-24T12:40:53.998Z,132.18
2024-01-24T12:41:57.548Z,104.70
2024-01-24T12:43:01.048Z,109.93
2024-01-24T12:44:06.181Z,139.50
2024-01-24T12:45:15.797Z,146.77
2024-01-24T12:46:21.425Z,152.93
2024-01-24T12:47:24.275Z,168.18
2024-01-24T12:48:27.066Z,137.05
2024-01-24T12:49:30.792Z,127.75
2024-01-24T12:50:34.124Z,131.05
2024-01-24T12:51:41.293Z,124.32
2024-01-24T12:52:48.264Z,124.50
2024-01-24T12:53:51.402Z,108.40
2024-01-24T12:54:54.082Z,102.93
2024-01-24T12:55:57.074Z,89.90
2024-01-24T12:56:59.730Z,80.05
2024-01-24T12:58:02.679Z,86.45
2024-01-24T12:59:05.512Z,93.55
2024-01-24T13:00:11.382Z,86.43
2024-01-24T13:01:14.480Z,85.95
2024-01-24T13:02:18.521Z,89.10
2024-01-24T13:03:22.581Z,84.75
2024-01-24T13:05:35.675Z,79.22
2024-01-24T13:06:46.015Z,81.95
2024-01-24T13:07:48.842Z,71.35
2024-01-24T13:08:52.032Z,76.88
2024-01-24T13:09:56.888Z,65.70
2024-01-24T13:11:01.535Z,63.35
2024-01-24T13:12:04.457Z,78.90
2024-01-24T13:13:09.305Z,86.18
2024-01-24T13:14:13.766Z,106.65
2024-01-24T13:15:16.648Z,69.25
2024-01-24T13:16:19.260Z,77.40
2024-01-24T13:17:22.181Z,95.82
2024-01-24T13:18:25.207Z,108.28
2024-01-24T13:19:27.883Z,94.05
2024-01-24T13:20:30.531Z,78.95
2024-01-24T13:21:33.930Z,91.32
2024-01-24T13:22:37.064Z,83.30
2024-01-24T13:23:41.113Z,55.40
2024-01-24T13:24:43.714Z,39.28
2024-01-24T13:25:47.118Z,41.28
2024-01-24T13:26:50.008Z,36.33
2024-01-24T13:27:52.794Z,43.55
2024-01-24T13:28:55.806Z,41.42
2024-01-24T13:29:58.562Z,49.47
2024-01-24T13:31:01.191Z,104.95
2024-01-24T13:32:07.531Z,55.10
2024-01-24T13:33:11.131Z,60.60
2024-01-24T13:34:14.215Z,64.28
2024-01-24T13:35:17.296Z,73.45
2024-01-24T13:36:23.285Z,73.47
2024-01-24T13:37:26.092Z,95.10
2024-01-24T13:38:33.173Z,91.55
2024-01-24T13:39:37.289Z,133.52
2024-01-24T13:40:40.284Z,118.00